sensor_id;sensor_type;location;lat;lon;timestamp;temperature;humidity
1411;DHT22;700;51.906;8.404;2023-09-08T00:01:51;21.70;99.90
1411;DHT22;700;51.906;8.404;2023-09-08T00:06:52;21.40;99.90
1411;DHT22;700;51.906;8.404;2023-09-08T00:11:53;21.50;99.90
1411;DHT22;700;51.906;8.404;2023-09-08T00:16:57;21.40;99.90
1411;DHT22;700;51.906;8.404;2023-09-08T00:22:00;21.40;99.90
1411;DHT22;700;51.906;8.404;2023-09-08T00:27:01;21.30;99.90
1411;DHT22;700;51.906;8.404;2023-09-08T00:32:01;21.30;99.90
1411;DHT22;700;51.906;8.404;2023-09-08T00:37:02;21.30;99.90
1411;DHT22;700;51.906;8.404;2023-09-08T00:42:09;21.30;99.90
1411;DHT22;700;51.906;8.404;2023-09-08T00:47:12;21.20;99.90
1411;DHT22;700;51.906;8.404;2023-09-08T00:52:15;21.20;99.90
1411;DHT22;700;51.906;8.404;2023-09-08T00:57:16;21.10;99.90
1411;DHT22;700;51.906;8.404;2023-09-08T01:02:17;21.00;99.90
1411;DHT22;700;51.906;8.404;2023-09-08T01:07:19;21.00;99.90
1411;DHT22;700;51.906;8.404;2023-09-08T01:12:22;21.00;99.90
1411;DHT22;700;51.906;8.404;2023-09-08T01:17:23;21.00;99.90
1411;DHT22;700;51.906;8.404;2023-09-08T01:23:17;20.70;99.90
1411;DHT22;700;51.906;8.404;2023-09-08T01:28:00;20.80;99.90
1411;DHT22;700;51.906;8.404;2023-09-08T01:33:05;20.80;99.90
1411;DHT22;700;51.906;8.404;2023-09-08T01:38:07;20.80;99.90
1411;DHT22;700;51.906;8.404;2023-09-08T01:43:08;20.80;99.90
1411;DHT22;700;51.906;8.404;2023-09-08T01:48:11;20.80;99.90
1411;DHT22;700;51.906;8.404;2023-09-08T01:53:11;20.90;99.90
1411;DHT22;700;51.906;8.404;2023-09-08T01:58:12;20.90;99.90
1411;DHT22;700;51.906;8.404;2023-09-08T02:03:13;20.80;99.90
1411;DHT22;700;51.906;8.404;2023-09-08T02:08:13;20.60;99.90
1411;DHT22;700;51.906;8.404;2023-09-08T02:13:16;20.70;99.90
1411;DHT22;700;51.906;8.404;2023-09-08T02:18:17;20.80;99.90
1411;DHT22;700;51.906;8.404;2023-09-08T02:23:20;20.80;99.90
1411;DHT22;700;51.906;8.404;2023-09-08T02:28:23;20.60;99.90
1411;DHT22;700;51.906;8.404;2023-09-08T02:33:24;20.70;99.90
1411;DHT22;700;51.906;8.404;2023-09-08T02:38:29;20.60;99.90
1411;DHT22;700;51.906;8.404;2023-09-08T02:43:29;20.40;99.90
1411;DHT22;700;51.906;8.404;2023-09-08T02:48:30;20.50;99.90
1411;DHT22;700;51.906;8.404;2023-09-08T02:53:32;20.40;99.90
1411;DHT22;700;51.906;8.404;2023-09-08T02:58:36;20.20;99.90
1411;DHT22;700;51.906;8.404;2023-09-08T03:03:36;20.20;99.90
1411;DHT22;700;51.906;8.404;2023-09-08T03:08:37;20.20;99.90
1411;DHT22;700;51.906;8.404;2023-09-08T03:13:40;20.10;99.90
1411;DHT22;700;51.906;8.404;2023-09-08T03:18:44;20.10;99.90
1411;DHT22;700;51.906;8.404;2023-09-08T03:23:45;20.00;99.90
1411;DHT22;700;51.906;8.404;2023-09-08T03:28:46;20.20;99.90
1411;DHT22;700;51.906;8.404;2023-09-08T03:33:49;20.10;99.90
1411;DHT22;700;51.906;8.404;2023-09-08T03:38:49;20.00;99.90
1411;DHT22;700;51.906;8.404;2023-09-08T03:43:50;20.00;99.90
1411;DHT22;700;51.906;8.404;2023-09-08T03:48:51;19.90;99.90
1411;DHT22;700;51.906;8.404;2023-09-08T03:53:52;20.00;99.90
1411;DHT22;700;51.906;8.404;2023-09-08T03:58:53;20.10;99.90
1411;DHT22;700;51.906;8.404;2023-09-08T04:03:56;19.90;99.90
1411;DHT22;700;51.906;8.404;2023-09-08T04:08:56;19.80;99.90
1411;DHT22;700;51.906;8.404;2023-09-08T04:14:00;19.80;99.90
1411;DHT22;700;51.906;8.404;2023-09-08T04:19:02;19.70;99.90
1411;DHT22;700;51.906;8.404;2023-09-08T04:24:06;19.60;99.90
1411;DHT22;700;51.906;8.404;2023-09-08T04:29:07;19.60;99.90
1411;DHT22;700;51.906;8.404;2023-09-08T04:34:07;19.60;99.90
1411;DHT22;700;51.906;8.404;2023-09-08T04:39:08;19.60;99.90
1411;DHT22;700;51.906;8.404;2023-09-08T04:44:11;19.60;99.90
1411;DHT22;700;51.906;8.404;2023-09-08T04:49:14;19.60;99.90
1411;DHT22;700;51.906;8.404;2023-09-08T04:54:15;19.60;99.90
1411;DHT22;700;51.906;8.404;2023-09-08T04:59:15;19.40;99.90
1411;DHT22;700;51.906;8.404;2023-09-08T05:04:17;19.50;99.90
1411;DHT22;700;51.906;8.404;2023-09-08T05:09:18;19.60;99.90
1411;DHT22;700;51.906;8.404;2023-09-08T05:14:21;19.60;99.90
1411;DHT22;700;51.906;8.404;2023-09-08T05:19:22;19.50;99.90
1411;DHT22;700;51.906;8.404;2023-09-08T05:24:23;19.50;99.90
1411;DHT22;700;51.906;8.404;2023-09-08T05:29:26;19.50;99.90
1411;DHT22;700;51.906;8.404;2023-09-08T05:34:29;19.30;99.90
1411;DHT22;700;51.906;8.404;2023-09-08T05:39:29;19.40;99.90
1411;DHT22;700;51.906;8.404;2023-09-08T05:44:30;19.60;99.90
1411;DHT22;700;51.906;8.404;2023-09-08T05:49:33;19.70;99.90
1411;DHT22;700;51.906;8.404;2023-09-08T05:54:38;19.90;99.90
1411;DHT22;700;51.906;8.404;2023-09-08T05:59:38;20.10;99.90
1411;DHT22;700;51.906;8.404;2023-09-08T06:04:41;20.40;99.90
1411;DHT22;700;51.906;8.404;2023-09-08T06:09:42;20.60;99.90
1411;DHT22;700;51.906;8.404;2023-09-08T06:14:43;20.60;99.90
1411;DHT22;700;51.906;8.404;2023-09-08T06:19:43;20.70;99.90
1411;DHT22;700;51.906;8.404;2023-09-08T06:24:47;20.80;99.90
1411;DHT22;700;51.906;8.404;2023-09-08T06:29:50;21.00;99.90
1411;DHT22;700;51.906;8.404;2023-09-08T06:34:51;21.20;99.90
1411;DHT22;700;51.906;8.404;2023-09-08T06:39:54;21.50;99.90
1411;DHT22;700;51.906;8.404;2023-09-08T06:44:55;21.60;99.90
1411;DHT22;700;51.906;8.404;2023-09-08T06:49:56;21.90;99.90
1411;DHT22;700;51.906;8.404;2023-09-08T06:54:58;22.50;99.90
1411;DHT22;700;51.906;8.404;2023-09-08T06:59:59;22.90;99.90
1411;DHT22;700;51.906;8.404;2023-09-08T07:05:00;23.10;99.90
1411;DHT22;700;51.906;8.404;2023-09-08T07:10:07;23.20;99.90
1411;DHT22;700;51.906;8.404;2023-09-08T07:15:08;23.30;99.90
1411;DHT22;700;51.906;8.404;2023-09-08T07:20:12;23.50;99.90
1411;DHT22;700;51.906;8.404;2023-09-08T07:25:17;23.40;99.90
1411;DHT22;700;51.906;8.404;2023-09-08T07:30:18;23.60;99.90
1411;DHT22;700;51.906;8.404;2023-09-08T07:35:21;23.70;99.90
1411;DHT22;700;51.906;8.404;2023-09-08T07:40:24;24.00;99.90
1411;DHT22;700;51.906;8.404;2023-09-08T07:45:25;24.20;99.90
1411;DHT22;700;51.906;8.404;2023-09-08T07:50:28;24.50;99.90
1411;DHT22;700;51.906;8.404;2023-09-08T07:55:29;24.60;99.90
1411;DHT22;700;51.906;8.404;2023-09-08T08:00:32;24.80;99.90
1411;DHT22;700;51.906;8.404;2023-09-08T08:05:33;25.00;99.90
1411;DHT22;700;51.906;8.404;2023-09-08T08:10:36;25.10;99.90
1411;DHT22;700;51.906;8.404;2023-09-08T08:15:38;25.40;99.90
1411;DHT22;700;51.906;8.404;2023-09-08T08:20:42;25.70;99.90
1411;DHT22;700;51.906;8.404;2023-09-08T08:25:43;27.30;99.90
1411;DHT22;700;51.906;8.404;2023-09-08T08:30:46;28.80;99.90
1411;DHT22;700;51.906;8.404;2023-09-08T08:35:51;29.30;99.90
1411;DHT22;700;51.906;8.404;2023-09-08T08:40:52;28.80;99.90
1411;DHT22;700;51.906;8.404;2023-09-08T08:45:57;28.70;99.90
1411;DHT22;700;51.906;8.404;2023-09-08T08:50:59;29.00;99.90
1411;DHT22;700;51.906;8.404;2023-09-08T08:56:00;29.20;99.90
1411;DHT22;700;51.906;8.404;2023-09-08T09:01:04;29.20;99.90
1411;DHT22;700;51.906;8.404;2023-09-08T09:06:05;29.10;99.90
1411;DHT22;700;51.906;8.404;2023-09-08T09:11:06;29.30;99.90
1411;DHT22;700;51.906;8.404;2023-09-08T09:16:07;29.70;99.90
1411;DHT22;700;51.906;8.404;2023-09-08T09:21:10;29.30;99.90
1411;DHT22;700;51.906;8.404;2023-09-08T09:26:23;30.10;99.90
1411;DHT22;700;51.906;8.404;2023-09-08T09:31:25;34.50;98.40
1411;DHT22;700;51.906;8.404;2023-09-08T09:36:26;40.40;70.60
1411;DHT22;700;51.906;8.404;2023-09-08T09:41:34;46.60;47.00
1411;DHT22;700;51.906;8.404;2023-09-08T09:46:37;51.80;34.10
1411;DHT22;700;51.906;8.404;2023-09-08T09:51:42;55.10;27.50
1411;DHT22;700;51.906;8.404;2023-09-08T09:56:44;57.50;24.20
1411;DHT22;700;51.906;8.404;2023-09-08T10:01:48;56.10;21.70
1411;DHT22;700;51.906;8.404;2023-09-08T10:06:48;57.50;21.80
1411;DHT22;700;51.906;8.404;2023-09-08T10:11:54;58.80;21.00
1411;DHT22;700;51.906;8.404;2023-09-08T10:17:01;60.70;19.50
1411;DHT22;700;51.906;8.404;2023-09-08T10:22:03;59.90;18.70
1411;DHT22;700;51.906;8.404;2023-09-08T10:27:08;60.20;19.00
1411;DHT22;700;51.906;8.404;2023-09-08T10:32:09;61.00;18.60
1411;DHT22;700;51.906;8.404;2023-09-08T10:37:26;61.50;17.90
1411;DHT22;700;51.906;8.404;2023-09-08T10:42:29;59.60;17.90
1411;DHT22;700;51.906;8.404;2023-09-08T10:47:33;59.30;18.10
1411;DHT22;700;51.906;8.404;2023-09-08T10:52:37;60.30;17.80
1411;DHT22;700;51.906;8.404;2023-09-08T10:57:37;61.10;17.30
1411;DHT22;700;51.906;8.404;2023-09-08T11:02:42;60.30;17.60
1411;DHT22;700;51.906;8.404;2023-09-08T11:07:50;60.70;16.60
1411;DHT22;700;51.906;8.404;2023-09-08T11:12:54;58.50;17.80
1411;DHT22;700;51.906;8.404;2023-09-08T11:17:55;58.10;18.10
1411;DHT22;700;51.906;8.404;2023-09-08T11:22:56;59.60;16.20
1411;DHT22;700;51.906;8.404;2023-09-08T11:27:57;57.60;17.20
1411;DHT22;700;51.906;8.404;2023-09-08T11:33:00;58.60;17.40
1411;DHT22;700;51.906;8.404;2023-09-08T11:38:02;56.10;17.60
1411;DHT22;700;51.906;8.404;2023-09-08T13:49:31;50.80;20.70
1411;DHT22;700;51.906;8.404;2023-09-08T13:54:34;51.90;22.80
1411;DHT22;700;51.906;8.404;2023-09-08T13:59:37;49.70;23.90
1411;DHT22;700;51.906;8.404;2023-09-08T14:04:42;50.90;24.20
1411;DHT22;700;51.906;8.404;2023-09-08T14:09:43;50.20;24.50
1411;DHT22;700;51.906;8.404;2023-09-08T14:14:43;48.00;26.50
1411;DHT22;700;51.906;8.404;2023-09-08T14:19:46;47.10;27.20
1411;DHT22;700;51.906;8.404;2023-09-08T14:24:47;44.50;29.00
1411;DHT22;700;51.906;8.404;2023-09-08T14:29:47;42.70;31.10
1411;DHT22;700;51.906;8.404;2023-09-08T14:34:48;41.50;33.10
1411;DHT22;700;51.906;8.404;2023-09-08T14:39:49;40.30;34.40
1411;DHT22;700;51.906;8.404;2023-09-08T14:44:50;39.70;35.80
1411;DHT22;700;51.906;8.404;2023-09-08T14:49:51;38.60;36.30
1411;DHT22;700;51.906;8.404;2023-09-08T14:54:52;37.90;38.80
1411;DHT22;700;51.906;8.404;2023-09-08T14:59:53;37.10;38.50
1411;DHT22;700;51.906;8.404;2023-09-08T15:04:55;36.70;39.40
1411;DHT22;700;51.906;8.404;2023-09-08T15:09:56;36.10;40.90
1411;DHT22;700;51.906;8.404;2023-09-08T15:15:01;36.20;41.70
1411;DHT22;700;51.906;8.404;2023-09-08T15:20:04;36.10;42.30
1411;DHT22;700;51.906;8.404;2023-09-08T15:25:05;35.80;43.00
1411;DHT22;700;51.906;8.404;2023-09-08T15:30:06;35.60;43.50
1411;DHT22;700;51.906;8.404;2023-09-08T15:35:07;35.30;43.30
1411;DHT22;700;51.906;8.404;2023-09-08T15:40:08;35.20;44.00
1411;DHT22;700;51.906;8.404;2023-09-08T15:45:14;35.00;45.60
1411;DHT22;700;51.906;8.404;2023-09-08T15:50:14;34.90;44.50
1411;DHT22;700;51.906;8.404;2023-09-08T15:55:15;34.80;45.40
1411;DHT22;700;51.906;8.404;2023-09-08T16:00:18;34.50;46.30
1411;DHT22;700;51.906;8.404;2023-09-08T16:05:24;34.40;46.70
1411;DHT22;700;51.906;8.404;2023-09-08T16:10:26;34.40;46.80
1411;DHT22;700;51.906;8.404;2023-09-08T16:15:29;34.10;46.80
1411;DHT22;700;51.906;8.404;2023-09-08T16:20:30;34.00;48.50
1411;DHT22;700;51.906;8.404;2023-09-08T16:25:33;34.00;48.80
1411;DHT22;700;51.906;8.404;2023-09-08T16:30:34;33.80;49.10
1411;DHT22;700;51.906;8.404;2023-09-08T16:35:35;33.80;49.70
1411;DHT22;700;51.906;8.404;2023-09-08T16:40:40;33.50;49.90
1411;DHT22;700;51.906;8.404;2023-09-08T16:45:41;33.20;51.80
1411;DHT22;700;51.906;8.404;2023-09-08T16:50:41;33.00;52.80
1411;DHT22;700;51.906;8.404;2023-09-08T16:55:42;32.80;52.70
1411;DHT22;700;51.906;8.404;2023-09-08T17:00:45;32.60;55.20
1411;DHT22;700;51.906;8.404;2023-09-08T17:05:45;32.50;56.30
1411;DHT22;700;51.906;8.404;2023-09-08T17:10:47;32.20;56.60
1411;DHT22;700;51.906;8.404;2023-09-08T17:15:50;32.20;58.40
1411;DHT22;700;51.906;8.404;2023-09-08T17:20:51;32.00;59.30
1411;DHT22;700;51.906;8.404;2023-09-08T17:25:54;31.70;61.40
1411;DHT22;700;51.906;8.404;2023-09-08T17:30:55;31.40;62.30
1411;DHT22;700;51.906;8.404;2023-09-08T17:35:58;31.10;64.70
1411;DHT22;700;51.906;8.404;2023-09-08T17:40:58;30.90;66.50
1411;DHT22;700;51.906;8.404;2023-09-08T17:46:00;30.60;69.40
1411;DHT22;700;51.906;8.404;2023-09-08T17:51:05;30.40;73.20
1411;DHT22;700;51.906;8.404;2023-09-08T17:56:06;30.00;78.40
1411;DHT22;700;51.906;8.404;2023-09-08T18:01:07;29.80;83.00
1411;DHT22;700;51.906;8.404;2023-09-08T18:06:07;29.50;89.00
1411;DHT22;700;51.906;8.404;2023-09-08T18:11:10;29.30;92.30
1411;DHT22;700;51.906;8.404;2023-09-08T18:16:10;28.90;95.00
1411;DHT22;700;51.906;8.404;2023-09-08T18:21:11;28.80;96.80
1411;DHT22;700;51.906;8.404;2023-09-08T18:26:12;28.60;99.00
1411;DHT22;700;51.906;8.404;2023-09-08T18:31:16;28.40;99.90
1411;DHT22;700;51.906;8.404;2023-09-08T18:36:19;28.20;99.90
1411;DHT22;700;51.906;8.404;2023-09-08T18:41:19;28.00;99.90
1411;DHT22;700;51.906;8.404;2023-09-08T18:46:20;27.80;99.90
1411;DHT22;700;51.906;8.404;2023-09-08T18:51:20;27.70;99.90
1411;DHT22;700;51.906;8.404;2023-09-08T18:56:21;27.50;99.90
1411;DHT22;700;51.906;8.404;2023-09-08T19:01:22;27.50;99.90
1411;DHT22;700;51.906;8.404;2023-09-08T19:06:25;27.30;99.90
1411;DHT22;700;51.906;8.404;2023-09-08T19:11:26;27.20;99.90
1411;DHT22;700;51.906;8.404;2023-09-08T19:16:29;27.00;99.90
1411;DHT22;700;51.906;8.404;2023-09-08T19:21:32;27.00;99.90
1411;DHT22;700;51.906;8.404;2023-09-08T19:26:35;26.80;99.90
1411;DHT22;700;51.906;8.404;2023-09-08T19:31:40;26.60;99.90
1411;DHT22;700;51.906;8.404;2023-09-08T19:36:41;26.80;99.90
1411;DHT22;700;51.906;8.404;2023-09-08T19:41:41;26.60;99.90
1411;DHT22;700;51.906;8.404;2023-09-08T19:46:42;26.40;99.90
1411;DHT22;700;51.906;8.404;2023-09-08T20:16:53;26.20;99.90
1411;DHT22;700;51.906;8.404;2023-09-08T20:21:54;25.60;99.90
1411;DHT22;700;51.906;8.404;2023-09-08T20:26:56;25.50;99.90
1411;DHT22;700;51.906;8.404;2023-09-08T20:31:56;25.40;99.90
1411;DHT22;700;51.906;8.404;2023-09-08T20:36:57;25.20;99.90
1411;DHT22;700;51.906;8.404;2023-09-08T20:42:00;25.20;99.90
1411;DHT22;700;51.906;8.404;2023-09-08T20:47:01;24.90;99.90
1411;DHT22;700;51.906;8.404;2023-09-08T20:52:01;24.90;99.90
1411;DHT22;700;51.906;8.404;2023-09-08T20:57:05;25.00;99.90
1411;DHT22;700;51.906;8.404;2023-09-08T21:02:05;24.90;99.90
1411;DHT22;700;51.906;8.404;2023-09-08T21:07:08;24.70;99.90
1411;DHT22;700;51.906;8.404;2023-09-08T21:12:10;24.60;99.90
1411;DHT22;700;51.906;8.404;2023-09-08T21:17:14;24.50;99.90
1411;DHT22;700;51.906;8.404;2023-09-08T21:22:14;24.50;99.90
1411;DHT22;700;51.906;8.404;2023-09-08T21:27:15;24.40;99.90
1411;DHT22;700;51.906;8.404;2023-09-08T21:32:16;24.50;99.90
1411;DHT22;700;51.906;8.404;2023-09-08T21:37:16;24.60;99.90
1411;DHT22;700;51.906;8.404;2023-09-08T21:42:19;24.50;99.90
1411;DHT22;700;51.906;8.404;2023-09-08T21:47:20;24.30;99.90
1411;DHT22;700;51.906;8.404;2023-09-08T21:52:20;24.20;99.90
1411;DHT22;700;51.906;8.404;2023-09-08T21:57:21;23.90;99.90
1411;DHT22;700;51.906;8.404;2023-09-08T22:02:21;23.80;99.90
1411;DHT22;700;51.906;8.404;2023-09-08T22:07:23;23.70;99.90
1411;DHT22;700;51.906;8.404;2023-09-08T22:12:26;23.60;99.90
1411;DHT22;700;51.906;8.404;2023-09-08T22:17:29;23.60;99.90
1411;DHT22;700;51.906;8.404;2023-09-08T22:22:29;23.60;99.90
1411;DHT22;700;51.906;8.404;2023-09-08T22:27:30;23.50;99.90
1411;DHT22;700;51.906;8.404;2023-09-08T22:32:33;23.50;99.90
1411;DHT22;700;51.906;8.404;2023-09-08T22:37:34;23.30;99.90
1411;DHT22;700;51.906;8.404;2023-09-08T22:42:35;23.40;99.90
1411;DHT22;700;51.906;8.404;2023-09-08T22:47:40;23.30;99.90
1411;DHT22;700;51.906;8.404;2023-09-08T22:52:43;23.30;99.90
1411;DHT22;700;51.906;8.404;2023-09-08T22:57:44;23.10;99.90
1411;DHT22;700;51.906;8.404;2023-09-08T23:02:45;23.00;99.90
1411;DHT22;700;51.906;8.404;2023-09-08T23:07:47;23.00;99.90
1411;DHT22;700;51.906;8.404;2023-09-08T23:12:48;22.90;99.90
1411;DHT22;700;51.906;8.404;2023-09-08T23:17:51;22.80;99.90
1411;DHT22;700;51.906;8.404;2023-09-08T23:22:55;22.70;99.90
1411;DHT22;700;51.906;8.404;2023-09-08T23:27:58;22.70;99.90
1411;DHT22;700;51.906;8.404;2023-09-08T23:32:58;22.60;99.90
1411;DHT22;700;51.906;8.404;2023-09-08T23:38:02;22.60;99.90
1411;DHT22;700;51.906;8.404;2023-09-08T23:43:05;22.60;99.90
1411;DHT22;700;51.906;8.404;2023-09-08T23:48:06;22.50;99.90
1411;DHT22;700;51.906;8.404;2023-09-08T23:53:06;22.50;99.90
1411;DHT22;700;51.906;8.404;2023-09-08T23:58:10;22.40;99.90
